sensor_id;sensor_type;location;lat;lon;timestamp;temperature;humidity
28773;DHT22;15925;51.222;5.678;2023-11-21T00:00:16;8.50;99.90
28773;DHT22;15925;51.222;5.678;2023-11-21T00:02:43;8.50;99.90
28773;DHT22;15925;51.222;5.678;2023-11-21T00:05:11;8.50;99.90
28773;DHT22;15925;51.222;5.678;2023-11-21T00:07:40;8.50;99.90
28773;DHT22;15925;51.222;5.678;2023-11-21T00:10:07;8.60;99.90
28773;DHT22;15925;51.222;5.678;2023-11-21T00:12:35;8.60;99.90
28773;DHT22;15925;51.222;5.678;2023-11-21T00:15:02;8.60;99.90
28773;DHT22;15925;51.222;5.678;2023-11-21T00:17:29;8.60;99.90
28773;DHT22;15925;51.222;5.678;2023-11-21T00:19:54;8.70;99.90
28773;DHT22;15925;51.222;5.678;2023-11-21T00:22:20;8.70;99.90
28773;DHT22;15925;51.222;5.678;2023-11-21T00:24:46;8.70;99.90
28773;DHT22;15925;51.222;5.678;2023-11-21T00:27:13;8.70;99.90
28773;DHT22;15925;51.222;5.678;2023-11-21T00:29:41;8.70;99.90
28773;DHT22;15925;51.222;5.678;2023-11-21T00:32:07;8.70;99.90
28773;DHT22;15925;51.222;5.678;2023-11-21T00:34:33;8.70;99.90
28773;DHT22;15925;51.222;5.678;2023-11-21T00:37:00;8.70;99.90
28773;DHT22;15925;51.222;5.678;2023-11-21T00:39:25;8.70;99.90
28773;DHT22;15925;51.222;5.678;2023-11-21T00:41:52;8.80;99.90
28773;DHT22;15925;51.222;5.678;2023-11-21T00:44:18;8.70;99.90
28773;DHT22;15925;51.222;5.678;2023-11-21T00:46:44;8.70;99.90
28773;DHT22;15925;51.222;5.678;2023-11-21T00:49:10;8.70;99.90
28773;DHT22;15925;51.222;5.678;2023-11-21T00:51:35;8.70;99.90
28773;DHT22;15925;51.222;5.678;2023-11-21T00:54:01;8.80;99.90
28773;DHT22;15925;51.222;5.678;2023-11-21T00:56:27;8.80;99.90
28773;DHT22;15925;51.222;5.678;2023-11-21T00:58:53;8.80;99.90
28773;DHT22;15925;51.222;5.678;2023-11-21T01:01:20;8.90;99.90
28773;DHT22;15925;51.222;5.678;2023-11-21T01:03:47;8.90;99.90
28773;DHT22;15925;51.222;5.678;2023-11-21T01:06:14;8.90;99.90
28773;DHT22;15925;51.222;5.678;2023-11-21T01:08:41;8.80;99.90
28773;DHT22;15925;51.222;5.678;2023-11-21T01:11:08;8.90;99.90
28773;DHT22;15925;51.222;5.678;2023-11-21T01:13:35;8.90;99.90
28773;DHT22;15925;51.222;5.678;2023-11-21T01:16:01;9.00;99.90
28773;DHT22;15925;51.222;5.678;2023-11-21T01:18:27;9.00;99.90
28773;DHT22;15925;51.222;5.678;2023-11-21T01:20:54;9.00;99.90
28773;DHT22;15925;51.222;5.678;2023-11-21T01:23:20;8.90;99.90
28773;DHT22;15925;51.222;5.678;2023-11-21T01:25:46;9.00;99.90
28773;DHT22;15925;51.222;5.678;2023-11-21T01:28:12;8.90;99.90
28773;DHT22;15925;51.222;5.678;2023-11-21T01:30:38;9.00;99.90
28773;DHT22;15925;51.222;5.678;2023-11-21T01:33:04;9.00;99.90
28773;DHT22;15925;51.222;5.678;2023-11-21T01:35:30;9.00;99.90
28773;DHT22;15925;51.222;5.678;2023-11-21T01:37:56;9.00;99.90
28773;DHT22;15925;51.222;5.678;2023-11-21T01:40:21;9.00;99.90
28773;DHT22;15925;51.222;5.678;2023-11-21T01:42:47;9.00;99.90
28773;DHT22;15925;51.222;5.678;2023-11-21T01:45:14;9.10;99.90
28773;DHT22;15925;51.222;5.678;2023-11-21T01:47:40;9.10;99.90
28773;DHT22;15925;51.222;5.678;2023-11-21T01:50:09;9.10;99.90
28773;DHT22;15925;51.222;5.678;2023-11-21T01:52:38;9.10;99.90
28773;DHT22;15925;51.222;5.678;2023-11-21T01:55:06;9.10;99.90
28773;DHT22;15925;51.222;5.678;2023-11-21T01:57:35;9.10;99.90
28773;DHT22;15925;51.222;5.678;2023-11-21T02:00:02;9.10;99.90
28773;DHT22;15925;51.222;5.678;2023-11-21T02:02:45;9.10;99.90
28773;DHT22;15925;51.222;5.678;2023-11-21T02:05:11;9.10;99.90
28773;DHT22;15925;51.222;5.678;2023-11-21T02:07:40;9.10;99.90
28773;DHT22;15925;51.222;5.678;2023-11-21T02:10:07;9.20;99.90
28773;DHT22;15925;51.222;5.678;2023-11-21T02:12:34;9.20;99.90
28773;DHT22;15925;51.222;5.678;2023-11-21T02:15:05;9.20;99.90
28773;DHT22;15925;51.222;5.678;2023-11-21T02:17:35;9.20;99.90
28773;DHT22;15925;51.222;5.678;2023-11-21T02:20:02;9.20;99.90
28773;DHT22;15925;51.222;5.678;2023-11-21T02:22:32;9.20;99.90
28773;DHT22;15925;51.222;5.678;2023-11-21T02:25:01;9.20;99.90
28773;DHT22;15925;51.222;5.678;2023-11-21T02:27:27;9.20;99.90
28773;DHT22;15925;51.222;5.678;2023-11-21T02:29:53;9.20;99.90
28773;DHT22;15925;51.222;5.678;2023-11-21T02:32:20;9.30;99.90
28773;DHT22;15925;51.222;5.678;2023-11-21T02:34:48;9.10;99.90
28773;DHT22;15925;51.222;5.678;2023-11-21T02:37:15;9.20;99.90
28773;DHT22;15925;51.222;5.678;2023-11-21T02:39:41;9.20;99.90
28773;DHT22;15925;51.222;5.678;2023-11-21T02:42:07;9.10;99.90
28773;DHT22;15925;51.222;5.678;2023-11-21T02:44:33;9.00;99.90
28773;DHT22;15925;51.222;5.678;2023-11-21T02:47:01;9.20;99.90
28773;DHT22;15925;51.222;5.678;2023-11-21T02:49:28;9.20;99.90
28773;DHT22;15925;51.222;5.678;2023-11-21T02:51:55;9.20;99.90
28773;DHT22;15925;51.222;5.678;2023-11-21T02:54:21;9.20;99.90
28773;DHT22;15925;51.222;5.678;2023-11-21T02:56:48;9.20;99.90
28773;DHT22;15925;51.222;5.678;2023-11-21T02:59:16;9.10;99.90
28773;DHT22;15925;51.222;5.678;2023-11-21T03:01:41;9.00;99.90
28773;DHT22;15925;51.222;5.678;2023-11-21T03:04:08;8.90;99.90
28773;DHT22;15925;51.222;5.678;2023-11-21T03:06:34;8.80;99.90
28773;DHT22;15925;51.222;5.678;2023-11-21T03:09:01;8.70;99.90
28773;DHT22;15925;51.222;5.678;2023-11-21T03:11:27;8.60;99.90
28773;DHT22;15925;51.222;5.678;2023-11-21T03:13:53;8.60;99.90
28773;DHT22;15925;51.222;5.678;2023-11-21T03:16:19;8.70;99.90
28773;DHT22;15925;51.222;5.678;2023-11-21T03:18:45;8.50;99.90
28773;DHT22;15925;51.222;5.678;2023-11-21T03:21:12;8.50;99.90
28773;DHT22;15925;51.222;5.678;2023-11-21T03:23:38;8.60;99.90
28773;DHT22;15925;51.222;5.678;2023-11-21T03:26:04;8.50;99.90
28773;DHT22;15925;51.222;5.678;2023-11-21T03:28:30;8.50;99.90
28773;DHT22;15925;51.222;5.678;2023-11-21T03:30:56;8.40;99.90
28773;DHT22;15925;51.222;5.678;2023-11-21T03:33:23;8.40;99.90
28773;DHT22;15925;51.222;5.678;2023-11-21T03:35:49;8.20;99.90
28773;DHT22;15925;51.222;5.678;2023-11-21T03:38:15;8.20;99.90
28773;DHT22;15925;51.222;5.678;2023-11-21T03:40:42;8.10;99.90
28773;DHT22;15925;51.222;5.678;2023-11-21T03:43:08;8.20;99.90
28773;DHT22;15925;51.222;5.678;2023-11-21T03:45:33;8.20;99.90
28773;DHT22;15925;51.222;5.678;2023-11-21T03:47:59;8.10;99.90
28773;DHT22;15925;51.222;5.678;2023-11-21T03:50:31;8.10;99.90
28773;DHT22;15925;51.222;5.678;2023-11-21T03:52:57;8.00;99.90
28773;DHT22;15925;51.222;5.678;2023-11-21T03:55:23;8.10;99.90
28773;DHT22;15925;51.222;5.678;2023-11-21T03:57:51;8.10;99.90
28773;DHT22;15925;51.222;5.678;2023-11-21T04:00:19;8.10;99.90
28773;DHT22;15925;51.222;5.678;2023-11-21T04:02:47;8.10;99.90
28773;DHT22;15925;51.222;5.678;2023-11-21T04:05:13;8.10;99.90
28773;DHT22;15925;51.222;5.678;2023-11-21T04:07:39;8.10;99.90
28773;DHT22;15925;51.222;5.678;2023-11-21T04:10:07;8.00;99.90
28773;DHT22;15925;51.222;5.678;2023-11-21T04:12:35;8.00;99.90
28773;DHT22;15925;51.222;5.678;2023-11-21T04:15:01;8.10;99.90
28773;DHT22;15925;51.222;5.678;2023-11-21T04:17:27;8.10;99.90
28773;DHT22;15925;51.222;5.678;2023-11-21T04:19:52;8.10;99.90
28773;DHT22;15925;51.222;5.678;2023-11-21T04:22:18;8.10;99.90
28773;DHT22;15925;51.222;5.678;2023-11-21T04:24:44;8.10;99.90
28773;DHT22;15925;51.222;5.678;2023-11-21T04:27:09;8.00;99.90
28773;DHT22;15925;51.222;5.678;2023-11-21T04:29:35;8.10;99.90
28773;DHT22;15925;51.222;5.678;2023-11-21T04:32:01;8.00;99.90
28773;DHT22;15925;51.222;5.678;2023-11-21T04:34:28;8.10;99.90
28773;DHT22;15925;51.222;5.678;2023-11-21T04:36:56;8.10;99.90
28773;DHT22;15925;51.222;5.678;2023-11-21T04:39:22;8.20;99.90
28773;DHT22;15925;51.222;5.678;2023-11-21T04:41:50;8.10;99.90
28773;DHT22;15925;51.222;5.678;2023-11-21T04:44:16;8.20;99.90
28773;DHT22;15925;51.222;5.678;2023-11-21T04:46:42;8.20;99.90
28773;DHT22;15925;51.222;5.678;2023-11-21T04:49:08;8.20;99.90
28773;DHT22;15925;51.222;5.678;2023-11-21T04:51:34;8.30;99.90
28773;DHT22;15925;51.222;5.678;2023-11-21T04:54:00;8.30;99.90
28773;DHT22;15925;51.222;5.678;2023-11-21T04:56:25;8.20;99.90
28773;DHT22;15925;51.222;5.678;2023-11-21T04:58:53;8.30;99.90
28773;DHT22;15925;51.222;5.678;2023-11-21T05:01:19;8.30;99.90
28773;DHT22;15925;51.222;5.678;2023-11-21T05:03:45;8.30;99.90
28773;DHT22;15925;51.222;5.678;2023-11-21T05:06:12;8.40;99.90
28773;DHT22;15925;51.222;5.678;2023-11-21T05:08:40;8.40;99.90
28773;DHT22;15925;51.222;5.678;2023-11-21T05:11:06;8.40;99.90
28773;DHT22;15925;51.222;5.678;2023-11-21T05:13:36;8.40;99.90
28773;DHT22;15925;51.222;5.678;2023-11-21T05:16:02;8.30;99.90
28773;DHT22;15925;51.222;5.678;2023-11-21T05:18:39;8.20;99.90
28773;DHT22;15925;51.222;5.678;2023-11-21T05:21:06;8.20;99.90
28773;DHT22;15925;51.222;5.678;2023-11-21T05:23:32;8.10;99.90
28773;DHT22;15925;51.222;5.678;2023-11-21T05:25:59;8.10;99.90
28773;DHT22;15925;51.222;5.678;2023-11-21T05:28:25;8.00;99.90
28773;DHT22;15925;51.222;5.678;2023-11-21T05:30:51;8.00;99.90
28773;DHT22;15925;51.222;5.678;2023-11-21T05:33:16;8.10;99.90
28773;DHT22;15925;51.222;5.678;2023-11-21T05:35:42;8.20;99.90
28773;DHT22;15925;51.222;5.678;2023-11-21T05:38:08;8.10;99.90
28773;DHT22;15925;51.222;5.678;2023-11-21T05:40:34;8.30;99.90
28773;DHT22;15925;51.222;5.678;2023-11-21T05:43:00;8.30;99.90
28773;DHT22;15925;51.222;5.678;2023-11-21T05:45:25;8.40;99.90
28773;DHT22;15925;51.222;5.678;2023-11-21T05:47:51;8.40;99.90
28773;DHT22;15925;51.222;5.678;2023-11-21T05:50:17;8.30;99.90
28773;DHT22;15925;51.222;5.678;2023-11-21T05:52:45;8.30;99.90
28773;DHT22;15925;51.222;5.678;2023-11-21T05:55:11;8.30;99.90
28773;DHT22;15925;51.222;5.678;2023-11-21T05:57:38;8.20;99.90
28773;DHT22;15925;51.222;5.678;2023-11-21T06:00:10;8.20;99.90
28773;DHT22;15925;51.222;5.678;2023-11-21T06:02:40;8.20;99.90
28773;DHT22;15925;51.222;5.678;2023-11-21T06:05:07;8.10;99.90
28773;DHT22;15925;51.222;5.678;2023-11-21T06:07:32;8.10;99.90
28773;DHT22;15925;51.222;5.678;2023-11-21T06:09:58;8.20;99.90
28773;DHT22;15925;51.222;5.678;2023-11-21T06:12:24;8.40;99.90
28773;DHT22;15925;51.222;5.678;2023-11-21T06:14:50;8.40;99.90
28773;DHT22;15925;51.222;5.678;2023-11-21T06:17:16;8.50;99.90
28773;DHT22;15925;51.222;5.678;2023-11-21T06:19:44;8.40;99.90
28773;DHT22;15925;51.222;5.678;2023-11-21T06:22:11;8.30;99.90
28773;DHT22;15925;51.222;5.678;2023-11-21T06:24:37;8.30;99.90
28773;DHT22;15925;51.222;5.678;2023-11-21T06:27:06;8.30;99.90
28773;DHT22;15925;51.222;5.678;2023-11-21T06:29:31;8.30;99.90
28773;DHT22;15925;51.222;5.678;2023-11-21T06:31:57;8.40;99.90
28773;DHT22;15925;51.222;5.678;2023-11-21T06:34:24;8.50;99.90
28773;DHT22;15925;51.222;5.678;2023-11-21T06:36:50;8.50;99.90
28773;DHT22;15925;51.222;5.678;2023-11-21T06:39:16;8.40;99.90
28773;DHT22;15925;51.222;5.678;2023-11-21T06:41:43;8.40;99.90
28773;DHT22;15925;51.222;5.678;2023-11-21T06:44:08;8.50;99.90
28773;DHT22;15925;51.222;5.678;2023-11-21T06:46:34;8.60;99.90
28773;DHT22;15925;51.222;5.678;2023-11-21T06:49:00;8.70;99.90
28773;DHT22;15925;51.222;5.678;2023-11-21T06:51:26;8.70;99.90
28773;DHT22;15925;51.222;5.678;2023-11-21T06:53:52;8.60;99.90
28773;DHT22;15925;51.222;5.678;2023-11-21T06:56:18;8.50;99.90
28773;DHT22;15925;51.222;5.678;2023-11-21T06:58:45;8.70;99.90
28773;DHT22;15925;51.222;5.678;2023-11-21T07:01:15;8.70;99.90
28773;DHT22;15925;51.222;5.678;2023-11-21T07:03:41;8.80;99.90
28773;DHT22;15925;51.222;5.678;2023-11-21T07:06:07;8.80;99.90
28773;DHT22;15925;51.222;5.678;2023-11-21T07:08:33;8.70;99.90
28773;DHT22;15925;51.222;5.678;2023-11-21T07:10:59;8.60;99.90
28773;DHT22;15925;51.222;5.678;2023-11-21T07:13:24;8.70;99.90
28773;DHT22;15925;51.222;5.678;2023-11-21T07:15:51;8.60;99.90
28773;DHT22;15925;51.222;5.678;2023-11-21T07:18:17;8.70;99.90
28773;DHT22;15925;51.222;5.678;2023-11-21T07:20:43;8.70;99.90
28773;DHT22;15925;51.222;5.678;2023-11-21T07:23:09;8.90;99.90
28773;DHT22;15925;51.222;5.678;2023-11-21T07:25:36;8.90;99.90
28773;DHT22;15925;51.222;5.678;2023-11-21T07:28:02;9.00;99.90
28773;DHT22;15925;51.222;5.678;2023-11-21T07:30:27;9.10;99.90
28773;DHT22;15925;51.222;5.678;2023-11-21T07:32:53;9.10;99.90
28773;DHT22;15925;51.222;5.678;2023-11-21T07:35:19;9.10;99.90
28773;DHT22;15925;51.222;5.678;2023-11-21T07:37:45;9.20;99.90
28773;DHT22;15925;51.222;5.678;2023-11-21T07:40:12;9.20;99.90
28773;DHT22;15925;51.222;5.678;2023-11-21T07:42:39;9.20;99.90
28773;DHT22;15925;51.222;5.678;2023-11-21T07:45:05;9.30;99.90
28773;DHT22;15925;51.222;5.678;2023-11-21T07:47:33;9.30;99.90
28773;DHT22;15925;51.222;5.678;2023-11-21T07:50:03;9.30;99.90
28773;DHT22;15925;51.222;5.678;2023-11-21T07:52:28;9.30;99.90
28773;DHT22;15925;51.222;5.678;2023-11-21T07:54:54;9.40;99.90
28773;DHT22;15925;51.222;5.678;2023-11-21T07:57:20;9.40;99.90
28773;DHT22;15925;51.222;5.678;2023-11-21T07:59:46;9.40;99.90
28773;DHT22;15925;51.222;5.678;2023-11-21T08:02:11;9.40;99.90
28773;DHT22;15925;51.222;5.678;2023-11-21T08:04:37;9.40;99.90
28773;DHT22;15925;51.222;5.678;2023-11-21T08:07:03;9.40;99.90
28773;DHT22;15925;51.222;5.678;2023-11-21T08:09:29;9.50;99.90
28773;DHT22;15925;51.222;5.678;2023-11-21T08:11:55;9.50;99.90
28773;DHT22;15925;51.222;5.678;2023-11-21T08:14:22;9.50;99.90
28773;DHT22;15925;51.222;5.678;2023-11-21T08:16:47;9.50;99.90
28773;DHT22;15925;51.222;5.678;2023-11-21T08:19:13;9.40;99.90
28773;DHT22;15925;51.222;5.678;2023-11-21T08:21:39;9.50;99.90
28773;DHT22;15925;51.222;5.678;2023-11-21T08:24:06;9.50;99.90
28773;DHT22;15925;51.222;5.678;2023-11-21T08:26:38;9.60;99.90
28773;DHT22;15925;51.222;5.678;2023-11-21T08:29:04;9.60;99.90
28773;DHT22;15925;51.222;5.678;2023-11-21T08:31:32;9.60;99.90
28773;DHT22;15925;51.222;5.678;2023-11-21T08:33:58;9.60;99.90
28773;DHT22;15925;51.222;5.678;2023-11-21T08:36:24;9.70;99.90
28773;DHT22;15925;51.222;5.678;2023-11-21T08:38:50;9.70;99.90
28773;DHT22;15925;51.222;5.678;2023-11-21T08:41:20;9.70;99.90
28773;DHT22;15925;51.222;5.678;2023-11-21T08:43:50;9.70;99.90
28773;DHT22;15925;51.222;5.678;2023-11-21T08:46:16;9.80;99.90
28773;DHT22;15925;51.222;5.678;2023-11-21T08:48:43;9.80;99.90
28773;DHT22;15925;51.222;5.678;2023-11-21T08:51:10;9.80;99.90
28773;DHT22;15925;51.222;5.678;2023-11-21T08:53:39;9.80;99.90
28773;DHT22;15925;51.222;5.678;2023-11-21T08:56:06;9.90;99.90
28773;DHT22;15925;51.222;5.678;2023-11-21T08:58:32;9.90;99.90
28773;DHT22;15925;51.222;5.678;2023-11-21T09:00:58;9.80;99.90
28773;DHT22;15925;51.222;5.678;2023-11-21T09:03:24;9.90;99.90
28773;DHT22;15925;51.222;5.678;2023-11-21T09:05:50;9.90;99.90
28773;DHT22;15925;51.222;5.678;2023-11-21T09:08:16;10.00;99.90
28773;DHT22;15925;51.222;5.678;2023-11-21T09:10:42;10.00;99.90
28773;DHT22;15925;51.222;5.678;2023-11-21T09:13:10;10.00;99.90
28773;DHT22;15925;51.222;5.678;2023-11-21T09:15:36;10.00;99.90
28773;DHT22;15925;51.222;5.678;2023-11-21T09:18:02;10.00;99.90
28773;DHT22;15925;51.222;5.678;2023-11-21T09:20:28;10.00;99.90
28773;DHT22;15925;51.222;5.678;2023-11-21T09:22:54;10.00;99.90
28773;DHT22;15925;51.222;5.678;2023-11-21T09:25:21;10.10;99.90
28773;DHT22;15925;51.222;5.678;2023-11-21T09:27:48;10.00;99.90
28773;DHT22;15925;51.222;5.678;2023-11-21T09:30:13;10.10;99.90
28773;DHT22;15925;51.222;5.678;2023-11-21T09:32:43;10.10;99.90
28773;DHT22;15925;51.222;5.678;2023-11-21T09:35:11;10.10;99.90
28773;DHT22;15925;51.222;5.678;2023-11-21T09:37:37;10.10;99.90
28773;DHT22;15925;51.222;5.678;2023-11-21T09:40:04;10.10;99.90
28773;DHT22;15925;51.222;5.678;2023-11-21T09:42:37;10.10;99.90
28773;DHT22;15925;51.222;5.678;2023-11-21T09:45:26;10.20;99.90
28773;DHT22;15925;51.222;5.678;2023-11-21T09:47:57;10.20;99.90
28773;DHT22;15925;51.222;5.678;2023-11-21T09:50:24;10.20;99.90
28773;DHT22;15925;51.222;5.678;2023-11-21T09:53:17;10.10;99.90
28773;DHT22;15925;51.222;5.678;2023-11-21T09:55:44;10.10;99.90
28773;DHT22;15925;51.222;5.678;2023-11-21T09:58:11;10.20;99.90
28773;DHT22;15925;51.222;5.678;2023-11-21T10:00:45;10.30;99.90
28773;DHT22;15925;51.222;5.678;2023-11-21T10:03:13;10.30;99.90
28773;DHT22;15925;51.222;5.678;2023-11-21T10:05:40;10.30;99.90
28773;DHT22;15925;51.222;5.678;2023-11-21T10:08:08;10.30;99.90
28773;DHT22;15925;51.222;5.678;2023-11-21T10:10:36;10.30;99.90
28773;DHT22;15925;51.222;5.678;2023-11-21T10:13:04;10.30;99.90
28773;DHT22;15925;51.222;5.678;2023-11-21T10:15:36;10.20;99.90
28773;DHT22;15925;51.222;5.678;2023-11-21T10:18:04;10.30;99.90
28773;DHT22;15925;51.222;5.678;2023-11-21T10:20:32;10.30;99.90
28773;DHT22;15925;51.222;5.678;2023-11-21T10:23:04;10.20;99.90
28773;DHT22;15925;51.222;5.678;2023-11-21T10:25:33;10.20;99.90
28773;DHT22;15925;51.222;5.678;2023-11-21T10:28:00;10.30;99.90
28773;DHT22;15925;51.222;5.678;2023-11-21T10:30:37;10.30;99.90
28773;DHT22;15925;51.222;5.678;2023-11-21T10:33:05;10.30;99.90
28773;DHT22;15925;51.222;5.678;2023-11-21T10:35:45;10.30;99.90
28773;DHT22;15925;51.222;5.678;2023-11-21T10:38:13;10.10;99.90
28773;DHT22;15925;51.222;5.678;2023-11-21T10:40:40;10.10;99.90
28773;DHT22;15925;51.222;5.678;2023-11-21T10:43:08;10.20;99.90
28773;DHT22;15925;51.222;5.678;2023-11-21T10:45:36;10.10;99.90
28773;DHT22;15925;51.222;5.678;2023-11-21T10:48:05;10.20;99.90
28773;DHT22;15925;51.222;5.678;2023-11-21T10:50:36;10.20;99.90
28773;DHT22;15925;51.222;5.678;2023-11-21T10:53:05;10.30;99.90
28773;DHT22;15925;51.222;5.678;2023-11-21T10:55:34;10.40;99.90
28773;DHT22;15925;51.222;5.678;2023-11-21T10:58:04;10.40;99.90
28773;DHT22;15925;51.222;5.678;2023-11-21T11:00:32;10.40;99.90
28773;DHT22;15925;51.222;5.678;2023-11-21T11:02:58;10.40;99.90
28773;DHT22;15925;51.222;5.678;2023-11-21T11:05:25;10.30;99.90
28773;DHT22;15925;51.222;5.678;2023-11-21T11:08:05;10.40;99.90
28773;DHT22;15925;51.222;5.678;2023-11-21T11:10:31;10.30;99.90
28773;DHT22;15925;51.222;5.678;2023-11-21T11:12:58;10.30;99.90
28773;DHT22;15925;51.222;5.678;2023-11-21T11:15:25;10.30;99.90
28773;DHT22;15925;51.222;5.678;2023-11-21T11:17:51;10.30;99.90
28773;DHT22;15925;51.222;5.678;2023-11-21T11:20:17;10.30;99.90
28773;DHT22;15925;51.222;5.678;2023-11-21T11:26:01;10.40;99.90
28773;DHT22;15925;51.222;5.678;2023-11-21T11:28:50;10.30;99.90
28773;DHT22;15925;51.222;5.678;2023-11-21T11:35:21;10.40;99.90
28773;DHT22;15925;51.222;5.678;2023-11-21T11:37:44;10.30;99.90
28773;DHT22;15925;51.222;5.678;2023-11-21T11:40:12;10.40;99.90
28773;DHT22;15925;51.222;5.678;2023-11-21T11:42:38;10.40;99.90
28773;DHT22;15925;51.222;5.678;2023-11-21T11:45:19;10.40;99.90
28773;DHT22;15925;51.222;5.678;2023-11-21T11:47:47;10.50;99.90
28773;DHT22;15925;51.222;5.678;2023-11-21T11:50:13;10.50;99.90
28773;DHT22;15925;51.222;5.678;2023-11-21T11:52:52;10.60;99.90
28773;DHT22;15925;51.222;5.678;2023-11-21T11:55:24;10.60;99.90
28773;DHT22;15925;51.222;5.678;2023-11-21T11:57:52;10.70;99.90
28773;DHT22;15925;51.222;5.678;2023-11-21T12:03:00;10.60;99.90
28773;DHT22;15925;51.222;5.678;2023-11-21T12:05:33;10.60;99.90
28773;DHT22;15925;51.222;5.678;2023-11-21T12:08:02;10.60;99.90
28773;DHT22;15925;51.222;5.678;2023-11-21T12:10:31;10.60;99.90
28773;DHT22;15925;51.222;5.678;2023-11-21T12:12:58;10.50;99.90
28773;DHT22;15925;51.222;5.678;2023-11-21T12:15:24;10.50;99.90
28773;DHT22;15925;51.222;5.678;2023-11-21T12:17:58;10.50;99.90
28773;DHT22;15925;51.222;5.678;2023-11-21T12:20:25;10.50;99.90
28773;DHT22;15925;51.222;5.678;2023-11-21T12:22:56;10.50;99.90
28773;DHT22;15925;51.222;5.678;2023-11-21T12:25:23;10.40;99.90
28773;DHT22;15925;51.222;5.678;2023-11-21T12:27:51;10.50;99.90
28773;DHT22;15925;51.222;5.678;2023-11-21T12:30:29;10.50;99.90
28773;DHT22;15925;51.222;5.678;2023-11-21T12:32:59;10.60;99.90
28773;DHT22;15925;51.222;5.678;2023-11-21T12:35:27;10.60;99.90
28773;DHT22;15925;51.222;5.678;2023-11-21T12:37:55;10.50;99.90
28773;DHT22;15925;51.222;5.678;2023-11-21T12:40:23;10.50;99.90
28773;DHT22;15925;51.222;5.678;2023-11-21T12:42:53;10.50;99.90
28773;DHT22;15925;51.222;5.678;2023-11-21T12:45:25;10.60;99.90
28773;DHT22;15925;51.222;5.678;2023-11-21T12:48:00;10.60;99.90
28773;DHT22;15925;51.222;5.678;2023-11-21T12:50:28;10.70;99.90
28773;DHT22;15925;51.222;5.678;2023-11-21T12:53:08;10.70;99.90
28773;DHT22;15925;51.222;5.678;2023-11-21T12:55:35;10.70;99.90
28773;DHT22;15925;51.222;5.678;2023-11-21T12:58:07;10.70;99.90
28773;DHT22;15925;51.222;5.678;2023-11-21T13:00:43;10.60;99.90
28773;DHT22;15925;51.222;5.678;2023-11-21T13:03:10;10.60;99.90
28773;DHT22;15925;51.222;5.678;2023-11-21T13:05:39;10.70;99.90
28773;DHT22;15925;51.222;5.678;2023-11-21T13:08:07;10.60;99.90
28773;DHT22;15925;51.222;5.678;2023-11-21T13:10:36;10.70;99.90
28773;DHT22;15925;51.222;5.678;2023-11-21T13:13:04;10.60;99.90
28773;DHT22;15925;51.222;5.678;2023-11-21T13:15:48;10.70;99.90
28773;DHT22;15925;51.222;5.678;2023-11-21T13:18:14;10.80;99.90
28773;DHT22;15925;51.222;5.678;2023-11-21T13:20:41;10.80;99.90
28773;DHT22;15925;51.222;5.678;2023-11-21T13:23:09;10.80;99.90
28773;DHT22;15925;51.222;5.678;2023-11-21T13:25:38;10.80;99.90
28773;DHT22;15925;51.222;5.678;2023-11-21T13:28:06;10.90;99.90
28773;DHT22;15925;51.222;5.678;2023-11-21T13:30:32;10.90;99.90
28773;DHT22;15925;51.222;5.678;2023-11-21T13:33:05;10.90;99.90
28773;DHT22;15925;51.222;5.678;2023-11-21T13:35:34;11.00;99.90
28773;DHT22;15925;51.222;5.678;2023-11-21T13:38:05;10.90;99.90
28773;DHT22;15925;51.222;5.678;2023-11-21T13:40:32;11.00;99.90
28773;DHT22;15925;51.222;5.678;2023-11-21T13:43:05;11.00;99.90
28773;DHT22;15925;51.222;5.678;2023-11-21T13:45:36;11.00;99.90
28773;DHT22;15925;51.222;5.678;2023-11-21T13:48:03;10.90;99.90
28773;DHT22;15925;51.222;5.678;2023-11-21T13:50:32;10.90;99.90
28773;DHT22;15925;51.222;5.678;2023-11-21T13:53:00;10.90;99.90
28773;DHT22;15925;51.222;5.678;2023-11-21T13:55:36;10.90;99.90
28773;DHT22;15925;51.222;5.678;2023-11-21T13:58:03;10.90;99.90
28773;DHT22;15925;51.222;5.678;2023-11-21T14:00:30;11.00;99.90
28773;DHT22;15925;51.222;5.678;2023-11-21T14:03:11;11.00;99.90
28773;DHT22;15925;51.222;5.678;2023-11-21T14:05:45;10.90;99.90
28773;DHT22;15925;51.222;5.678;2023-11-21T14:08:13;11.00;99.90
28773;DHT22;15925;51.222;5.678;2023-11-21T14:10:42;11.00;99.90
28773;DHT22;15925;51.222;5.678;2023-11-21T14:13:09;11.00;99.90
28773;DHT22;15925;51.222;5.678;2023-11-21T14:15:41;10.80;99.90
28773;DHT22;15925;51.222;5.678;2023-11-21T14:18:09;10.80;99.90
28773;DHT22;15925;51.222;5.678;2023-11-21T14:20:43;10.80;99.90
28773;DHT22;15925;51.222;5.678;2023-11-21T14:23:10;10.90;99.90
28773;DHT22;15925;51.222;5.678;2023-11-21T14:25:36;10.80;99.90
28773;DHT22;15925;51.222;5.678;2023-11-21T14:28:03;10.80;99.90
28773;DHT22;15925;51.222;5.678;2023-11-21T14:30:30;10.80;99.90
28773;DHT22;15925;51.222;5.678;2023-11-21T14:32:58;10.80;99.90
28773;DHT22;15925;51.222;5.678;2023-11-21T14:35:24;10.70;99.90
28773;DHT22;15925;51.222;5.678;2023-11-21T14:37:52;10.80;99.90
28773;DHT22;15925;51.222;5.678;2023-11-21T14:40:19;10.70;99.90
28773;DHT22;15925;51.222;5.678;2023-11-21T14:42:50;10.70;99.90
28773;DHT22;15925;51.222;5.678;2023-11-21T14:45:19;10.80;99.90
28773;DHT22;15925;51.222;5.678;2023-11-21T14:47:47;10.80;99.90
28773;DHT22;15925;51.222;5.678;2023-11-21T14:50:28;10.80;99.90
28773;DHT22;15925;51.222;5.678;2023-11-21T14:53:12;10.80;99.90
28773;DHT22;15925;51.222;5.678;2023-11-21T14:55:41;10.80;99.90
28773;DHT22;15925;51.222;5.678;2023-11-21T14:58:27;10.80;99.90
28773;DHT22;15925;51.222;5.678;2023-11-21T15:00:54;10.80;99.90
28773;DHT22;15925;51.222;5.678;2023-11-21T15:03:26;10.80;99.90
28773;DHT22;15925;51.222;5.678;2023-11-21T15:06:12;10.80;99.90
28773;DHT22;15925;51.222;5.678;2023-11-21T15:08:49;10.80;99.90
28773;DHT22;15925;51.222;5.678;2023-11-21T15:11:21;10.70;99.90
28773;DHT22;15925;51.222;5.678;2023-11-21T15:13:53;10.70;99.90
28773;DHT22;15925;51.222;5.678;2023-11-21T15:16:19;10.70;99.90
28773;DHT22;15925;51.222;5.678;2023-11-21T15:18:45;10.70;99.90
28773;DHT22;15925;51.222;5.678;2023-11-21T15:21:11;10.70;99.90
28773;DHT22;15925;51.222;5.678;2023-11-21T15:23:38;10.70;99.90
28773;DHT22;15925;51.222;5.678;2023-11-21T15:26:06;10.60;99.90
28773;DHT22;15925;51.222;5.678;2023-11-21T15:28:34;10.70;99.90
28773;DHT22;15925;51.222;5.678;2023-11-21T15:31:00;10.70;99.90
28773;DHT22;15925;51.222;5.678;2023-11-21T15:33:28;10.60;99.90
28773;DHT22;15925;51.222;5.678;2023-11-21T15:35:54;10.60;99.90
28773;DHT22;15925;51.222;5.678;2023-11-21T15:38:20;10.60;99.90
28773;DHT22;15925;51.222;5.678;2023-11-21T15:40:47;10.60;99.90
28773;DHT22;15925;51.222;5.678;2023-11-21T15:43:13;10.70;99.90
28773;DHT22;15925;51.222;5.678;2023-11-21T15:45:40;10.80;99.90
28773;DHT22;15925;51.222;5.678;2023-11-21T15:48:06;10.80;99.90
28773;DHT22;15925;51.222;5.678;2023-11-21T15:50:32;10.90;99.90
28773;DHT22;15925;51.222;5.678;2023-11-21T15:52:58;10.90;99.90